Huvudsida
METAR-TAF:

METAR-TAF

Flygplatser :

Caracas, Venezuela

latitud: 10-36N, longitud: 066-59W, höjd: 43 m

Aktuellt väderrapport

Denna rapport gjordes för 52 minuter sedan, klockan 16:00 UTC
Vind 7 kt från syd
Temperatur 27°C
Fuktighet 84%
Tryck 1011 hPa
Sikt 10 km eller mer
Brutna moln på en höjd av 1600 ft

METAR: SVMI 181600Z 18007KT 9999 BKN016 27/24 Q1011

Tid: 12:52 (16:52 UTC)

Väderprognos

Denna rapport gjordes för 6 timmar och 52 minuter sedan, klockan 10:00 UTC
Prognos gäller från 18 kl. 12 UTC till 19 kl. 12 UTC
Vind 6 kt från nord/nordväst
Sikt 10 km eller mer
Få moln på en höjd av 1600 ft
Blir
från 18 kl. 12 UTC till 18 kl. 16 UTC
Vind 4 kt från ost
Sikt 10 km eller mer
Spridda moln på en höjd av 1600 ft

TAF: SVMI 181000Z 1812/1912 34006KT 9999 FEW016 TX26/27Z TN23/24Z BECMG 1812/1816 09004KT 9999 SCT016

Aktuella väderrapporter och prognoser från 4000 flygplatser (METAR- och TAF-rapporter).

De tillgängliga stationerna syns som gula och röda prickar på kartan.

För musen över prickarna för att se namnen på stationerna.

Klicka sedan för att få väderrapporter och prognoser.

För att ändra kartan: Klicka på de gröna knapparna med ett svart kors på för att zooma in; den gröna knappen med ett streck på för att zooma ut; eller på de gröna pilarna för angränsande kartor.


METAR-TAF: